sensor_id;sensor_type;location;lat;lon;timestamp;temperature;humidity
5304;DHT22;2674;49.722;10.892;2023-07-08T00:00:44;16.70;1.00
5304;DHT22;2674;49.722;10.892;2023-07-08T00:03:11;16.60;1.00
5304;DHT22;2674;49.722;10.892;2023-07-08T00:05:37;16.60;1.00
5304;DHT22;2674;49.722;10.892;2023-07-08T00:08:03;16.50;1.00
5304;DHT22;2674;49.722;10.892;2023-07-08T00:10:29;16.40;1.00
5304;DHT22;2674;49.722;10.892;2023-07-08T00:12:57;16.40;1.00
5304;DHT22;2674;49.722;10.892;2023-07-08T00:15:32;16.30;1.00
5304;DHT22;2674;49.722;10.892;2023-07-08T00:17:59;16.30;1.00
5304;DHT22;2674;49.722;10.892;2023-07-08T00:20:38;16.30;1.00
5304;DHT22;2674;49.722;10.892;2023-07-08T00:23:04;16.20;1.00
5304;DHT22;2674;49.722;10.892;2023-07-08T00:25:31;16.20;1.00
5304;DHT22;2674;49.722;10.892;2023-07-08T00:27:57;16.20;1.00
5304;DHT22;2674;49.722;10.892;2023-07-08T00:30:31;16.10;1.00
5304;DHT22;2674;49.722;10.892;2023-07-08T00:32:58;16.20;1.00
5304;DHT22;2674;49.722;10.892;2023-07-08T00:35:43;16.10;1.00
5304;DHT22;2674;49.722;10.892;2023-07-08T00:38:13;16.00;1.00
5304;DHT22;2674;49.722;10.892;2023-07-08T00:40:53;16.00;1.00
5304;DHT22;2674;49.722;10.892;2023-07-08T00:43:30;15.90;1.00
5304;DHT22;2674;49.722;10.892;2023-07-08T00:48:51;15.80;1.00
5304;DHT22;2674;49.722;10.892;2023-07-08T00:51:19;15.80;1.00
5304;DHT22;2674;49.722;10.892;2023-07-08T00:53:45;15.70;1.00
5304;DHT22;2674;49.722;10.892;2023-07-08T00:56:27;15.70;1.00
5304;DHT22;2674;49.722;10.892;2023-07-08T00:59:45;15.70;1.00
5304;DHT22;2674;49.722;10.892;2023-07-08T01:01:51;15.70;1.00
5304;DHT22;2674;49.722;10.892;2023-07-08T01:07:09;15.70;1.00
5304;DHT22;2674;49.722;10.892;2023-07-08T01:09:40;15.70;1.00
5304;DHT22;2674;49.722;10.892;2023-07-08T01:12:13;15.70;1.00
5304;DHT22;2674;49.722;10.892;2023-07-08T01:14:41;15.80;1.00
5304;DHT22;2674;49.722;10.892;2023-07-08T01:17:09;15.80;1.00
5304;DHT22;2674;49.722;10.892;2023-07-08T01:19:43;15.80;1.00
5304;DHT22;2674;49.722;10.892;2023-07-08T01:22:10;15.70;1.00
5304;DHT22;2674;49.722;10.892;2023-07-08T01:24:41;15.70;1.00
5304;DHT22;2674;49.722;10.892;2023-07-08T01:27:13;15.70;1.00
5304;DHT22;2674;49.722;10.892;2023-07-08T01:29:40;15.70;1.00
5304;DHT22;2674;49.722;10.892;2023-07-08T01:32:06;15.60;1.00
5304;DHT22;2674;49.722;10.892;2023-07-08T01:34:33;15.50;1.00
5304;DHT22;2674;49.722;10.892;2023-07-08T01:37:01;15.50;1.00
5304;DHT22;2674;49.722;10.892;2023-07-08T01:39:30;15.50;1.00
5304;DHT22;2674;49.722;10.892;2023-07-08T01:41:57;15.50;1.00
5304;DHT22;2674;49.722;10.892;2023-07-08T01:44:35;15.40;1.00
5304;DHT22;2674;49.722;10.892;2023-07-08T01:47:13;15.40;1.00
5304;DHT22;2674;49.722;10.892;2023-07-08T01:49:42;15.40;1.00
5304;DHT22;2674;49.722;10.892;2023-07-08T01:52:08;15.30;1.00
5304;DHT22;2674;49.722;10.892;2023-07-08T01:54:35;15.20;1.00
5304;DHT22;2674;49.722;10.892;2023-07-08T01:57:01;15.20;1.00
5304;DHT22;2674;49.722;10.892;2023-07-08T01:59:28;15.10;1.00
5304;DHT22;2674;49.722;10.892;2023-07-08T02:01:54;15.10;1.00
5304;DHT22;2674;49.722;10.892;2023-07-08T02:04:24;15.10;1.00
5304;DHT22;2674;49.722;10.892;2023-07-08T02:06:55;15.10;1.00
5304;DHT22;2674;49.722;10.892;2023-07-08T02:09:21;15.10;1.00
5304;DHT22;2674;49.722;10.892;2023-07-08T02:11:47;15.00;1.00
5304;DHT22;2674;49.722;10.892;2023-07-08T02:14:13;15.00;1.00
5304;DHT22;2674;49.722;10.892;2023-07-08T02:16:39;15.00;1.00
5304;DHT22;2674;49.722;10.892;2023-07-08T02:19:05;15.00;1.00
5304;DHT22;2674;49.722;10.892;2023-07-08T02:21:30;15.00;1.00
5304;DHT22;2674;49.722;10.892;2023-07-08T02:23:57;14.90;1.00
5304;DHT22;2674;49.722;10.892;2023-07-08T02:26:23;14.90;1.00
5304;DHT22;2674;49.722;10.892;2023-07-08T02:28:49;14.90;1.00
5304;DHT22;2674;49.722;10.892;2023-07-08T02:31:15;14.90;1.00
5304;DHT22;2674;49.722;10.892;2023-07-08T02:33:41;14.80;1.00
5304;DHT22;2674;49.722;10.892;2023-07-08T02:36:06;14.80;1.00
5304;DHT22;2674;49.722;10.892;2023-07-08T02:38:32;14.70;1.00
5304;DHT22;2674;49.722;10.892;2023-07-08T02:40:59;14.70;1.00
5304;DHT22;2674;49.722;10.892;2023-07-08T02:43:25;14.70;1.00
5304;DHT22;2674;49.722;10.892;2023-07-08T02:45:51;14.60;1.00
5304;DHT22;2674;49.722;10.892;2023-07-08T02:48:18;14.60;1.00
5304;DHT22;2674;49.722;10.892;2023-07-08T02:50:45;14.60;1.00
5304;DHT22;2674;49.722;10.892;2023-07-08T02:53:11;14.60;1.00
5304;DHT22;2674;49.722;10.892;2023-07-08T02:55:38;14.60;1.00
5304;DHT22;2674;49.722;10.892;2023-07-08T02:58:04;14.60;1.00
5304;DHT22;2674;49.722;10.892;2023-07-08T03:00:30;14.60;1.00
5304;DHT22;2674;49.722;10.892;2023-07-08T03:02:56;14.60;1.00
5304;DHT22;2674;49.722;10.892;2023-07-08T03:05:22;14.50;1.00
5304;DHT22;2674;49.722;10.892;2023-07-08T03:07:48;14.50;1.00
5304;DHT22;2674;49.722;10.892;2023-07-08T03:10:13;14.50;1.00
5304;DHT22;2674;49.722;10.892;2023-07-08T03:12:39;14.50;1.00
5304;DHT22;2674;49.722;10.892;2023-07-08T03:15:05;14.40;1.00
5304;DHT22;2674;49.722;10.892;2023-07-08T03:17:32;14.50;1.00
5304;DHT22;2674;49.722;10.892;2023-07-08T03:19:57;14.40;1.00
5304;DHT22;2674;49.722;10.892;2023-07-08T03:22:23;14.40;1.00
5304;DHT22;2674;49.722;10.892;2023-07-08T03:24:49;14.30;1.00
5304;DHT22;2674;49.722;10.892;2023-07-08T03:27:15;14.30;1.00
5304;DHT22;2674;49.722;10.892;2023-07-08T03:29:41;14.30;1.00
5304;DHT22;2674;49.722;10.892;2023-07-08T03:32:11;14.30;1.00
5304;DHT22;2674;49.722;10.892;2023-07-08T03:34:38;14.30;1.00
5304;DHT22;2674;49.722;10.892;2023-07-08T03:37:04;14.30;1.00
5304;DHT22;2674;49.722;10.892;2023-07-08T03:39:30;14.30;1.00
5304;DHT22;2674;49.722;10.892;2023-07-08T03:41:59;14.30;1.00
5304;DHT22;2674;49.722;10.892;2023-07-08T03:44:25;14.30;1.00
5304;DHT22;2674;49.722;10.892;2023-07-08T03:46:50;14.30;1.00
5304;DHT22;2674;49.722;10.892;2023-07-08T03:49:17;14.30;1.00
5304;DHT22;2674;49.722;10.892;2023-07-08T03:51:48;14.30;1.00
5304;DHT22;2674;49.722;10.892;2023-07-08T03:54:14;14.30;1.00
5304;DHT22;2674;49.722;10.892;2023-07-08T03:56:40;14.30;1.00
5304;DHT22;2674;49.722;10.892;2023-07-08T03:59:06;14.30;1.00
5304;DHT22;2674;49.722;10.892;2023-07-08T04:01:32;14.20;1.00
5304;DHT22;2674;49.722;10.892;2023-07-08T04:03:59;14.20;1.00
5304;DHT22;2674;49.722;10.892;2023-07-08T04:06:25;14.20;1.00
5304;DHT22;2674;49.722;10.892;2023-07-08T04:08:52;14.20;1.00
5304;DHT22;2674;49.722;10.892;2023-07-08T04:11:20;14.20;1.00
5304;DHT22;2674;49.722;10.892;2023-07-08T04:13:47;14.20;1.00
5304;DHT22;2674;49.722;10.892;2023-07-08T04:16:33;14.20;1.00
5304;DHT22;2674;49.722;10.892;2023-07-08T04:19:02;14.20;1.00
5304;DHT22;2674;49.722;10.892;2023-07-08T04:21:28;14.30;1.00
5304;DHT22;2674;49.722;10.892;2023-07-08T04:23:55;14.30;1.00
5304;DHT22;2674;49.722;10.892;2023-07-08T04:26:21;14.40;1.00
5304;DHT22;2674;49.722;10.892;2023-07-08T04:28:47;14.50;1.00
5304;DHT22;2674;49.722;10.892;2023-07-08T04:31:13;14.80;1.00
5304;DHT22;2674;49.722;10.892;2023-07-08T04:33:39;15.10;1.00
5304;DHT22;2674;49.722;10.892;2023-07-08T04:36:11;15.70;1.00
5304;DHT22;2674;49.722;10.892;2023-07-08T04:38:37;16.20;1.00
5304;DHT22;2674;49.722;10.892;2023-07-08T04:41:03;16.70;1.00
5304;DHT22;2674;49.722;10.892;2023-07-08T04:43:29;17.20;1.00
5304;DHT22;2674;49.722;10.892;2023-07-08T04:45:55;17.60;1.00
5304;DHT22;2674;49.722;10.892;2023-07-08T04:48:22;17.90;1.00
5304;DHT22;2674;49.722;10.892;2023-07-08T04:50:51;18.20;1.00
5304;DHT22;2674;49.722;10.892;2023-07-08T04:53:18;18.50;1.00
5304;DHT22;2674;49.722;10.892;2023-07-08T04:55:50;18.80;1.00
5304;DHT22;2674;49.722;10.892;2023-07-08T04:58:16;19.00;1.00
5304;DHT22;2674;49.722;10.892;2023-07-08T05:00:42;19.20;1.00
5304;DHT22;2674;49.722;10.892;2023-07-08T05:03:08;19.50;1.00
5304;DHT22;2674;49.722;10.892;2023-07-08T05:05:34;19.60;1.00
5304;DHT22;2674;49.722;10.892;2023-07-08T05:08:00;19.80;1.00
5304;DHT22;2674;49.722;10.892;2023-07-08T05:10:26;19.90;1.00
5304;DHT22;2674;49.722;10.892;2023-07-08T05:12:52;20.00;1.00
5304;DHT22;2674;49.722;10.892;2023-07-08T05:15:17;20.20;1.00
5304;DHT22;2674;49.722;10.892;2023-07-08T05:17:43;20.40;1.00
5304;DHT22;2674;49.722;10.892;2023-07-08T05:20:12;20.60;1.00
5304;DHT22;2674;49.722;10.892;2023-07-08T05:22:38;20.80;1.00
5304;DHT22;2674;49.722;10.892;2023-07-08T05:25:05;20.90;1.00
5304;DHT22;2674;49.722;10.892;2023-07-08T05:27:31;21.10;1.00
5304;DHT22;2674;49.722;10.892;2023-07-08T05:30:00;21.30;1.00
5304;DHT22;2674;49.722;10.892;2023-07-08T05:32:27;21.50;1.00
5304;DHT22;2674;49.722;10.892;2023-07-08T05:34:53;21.50;1.00
5304;DHT22;2674;49.722;10.892;2023-07-08T05:37:19;21.60;1.00
5304;DHT22;2674;49.722;10.892;2023-07-08T05:39:49;21.50;1.00
5304;DHT22;2674;49.722;10.892;2023-07-08T05:42:15;21.70;1.00
5304;DHT22;2674;49.722;10.892;2023-07-08T05:44:41;21.80;1.00
5304;DHT22;2674;49.722;10.892;2023-07-08T05:47:07;21.80;1.00
5304;DHT22;2674;49.722;10.892;2023-07-08T05:49:33;21.90;1.00
5304;DHT22;2674;49.722;10.892;2023-07-08T05:51:58;21.90;1.00
5304;DHT22;2674;49.722;10.892;2023-07-08T05:54:24;21.90;1.00
5304;DHT22;2674;49.722;10.892;2023-07-08T05:56:50;22.00;1.00
5304;DHT22;2674;49.722;10.892;2023-07-08T05:59:16;22.10;1.00
5304;DHT22;2674;49.722;10.892;2023-07-08T06:01:42;22.20;1.00
5304;DHT22;2674;49.722;10.892;2023-07-08T06:04:07;22.30;1.00
5304;DHT22;2674;49.722;10.892;2023-07-08T06:06:36;22.30;1.00
5304;DHT22;2674;49.722;10.892;2023-07-08T06:09:02;22.40;1.00
5304;DHT22;2674;49.722;10.892;2023-07-08T06:11:29;22.50;1.00
5304;DHT22;2674;49.722;10.892;2023-07-08T06:13:55;22.70;1.00
5304;DHT22;2674;49.722;10.892;2023-07-08T06:16:20;22.80;1.00
5304;DHT22;2674;49.722;10.892;2023-07-08T06:18:46;23.00;1.00
5304;DHT22;2674;49.722;10.892;2023-07-08T06:21:12;23.10;1.00
5304;DHT22;2674;49.722;10.892;2023-07-08T06:23:38;23.10;1.00
5304;DHT22;2674;49.722;10.892;2023-07-08T06:26:03;23.10;1.00
5304;DHT22;2674;49.722;10.892;2023-07-08T06:28:29;23.20;1.00
5304;DHT22;2674;49.722;10.892;2023-07-08T06:30:55;23.40;1.00
5304;DHT22;2674;49.722;10.892;2023-07-08T06:33:21;23.50;1.00
5304;DHT22;2674;49.722;10.892;2023-07-08T06:35:47;23.70;1.00
5304;DHT22;2674;49.722;10.892;2023-07-08T06:38:13;23.80;1.00
5304;DHT22;2674;49.722;10.892;2023-07-08T06:40:38;23.90;1.00
5304;DHT22;2674;49.722;10.892;2023-07-08T06:43:04;23.90;1.00
5304;DHT22;2674;49.722;10.892;2023-07-08T06:45:30;24.00;1.00
5304;DHT22;2674;49.722;10.892;2023-07-08T06:47:56;24.00;1.00
5304;DHT22;2674;49.722;10.892;2023-07-08T06:50:22;24.10;1.00
5304;DHT22;2674;49.722;10.892;2023-07-08T06:52:48;24.20;1.00
5304;DHT22;2674;49.722;10.892;2023-07-08T06:55:14;24.30;1.00
5304;DHT22;2674;49.722;10.892;2023-07-08T06:57:40;24.40;1.00
5304;DHT22;2674;49.722;10.892;2023-07-08T07:00:08;24.50;1.00
5304;DHT22;2674;49.722;10.892;2023-07-08T07:02:34;24.60;1.00
5304;DHT22;2674;49.722;10.892;2023-07-08T07:05:01;24.80;1.00
5304;DHT22;2674;49.722;10.892;2023-07-08T07:07:27;24.90;1.00
5304;DHT22;2674;49.722;10.892;2023-07-08T07:09:53;25.00;1.00
5304;DHT22;2674;49.722;10.892;2023-07-08T07:12:19;25.00;1.00
5304;DHT22;2674;49.722;10.892;2023-07-08T07:14:45;25.20;1.00
5304;DHT22;2674;49.722;10.892;2023-07-08T07:17:11;25.30;1.00
5304;DHT22;2674;49.722;10.892;2023-07-08T07:19:37;25.50;1.00
5304;DHT22;2674;49.722;10.892;2023-07-08T07:22:03;25.60;1.00
5304;DHT22;2674;49.722;10.892;2023-07-08T07:24:29;25.80;1.00
5304;DHT22;2674;49.722;10.892;2023-07-08T07:26:55;25.90;1.00
5304;DHT22;2674;49.722;10.892;2023-07-08T07:29:22;26.10;1.00
5304;DHT22;2674;49.722;10.892;2023-07-08T07:31:48;26.20;1.00
5304;DHT22;2674;49.722;10.892;2023-07-08T07:34:14;26.30;1.00
5304;DHT22;2674;49.722;10.892;2023-07-08T07:36:40;26.50;1.00
5304;DHT22;2674;49.722;10.892;2023-07-08T07:39:06;26.50;1.00
5304;DHT22;2674;49.722;10.892;2023-07-08T07:41:32;26.70;1.00
5304;DHT22;2674;49.722;10.892;2023-07-08T07:43:58;26.80;1.00
5304;DHT22;2674;49.722;10.892;2023-07-08T07:46:24;26.90;1.00
5304;DHT22;2674;49.722;10.892;2023-07-08T07:48:49;27.10;1.00
5304;DHT22;2674;49.722;10.892;2023-07-08T07:51:15;27.10;1.00
5304;DHT22;2674;49.722;10.892;2023-07-08T07:53:41;27.20;1.00
5304;DHT22;2674;49.722;10.892;2023-07-08T07:56:07;27.40;1.00
5304;DHT22;2674;49.722;10.892;2023-07-08T07:58:34;27.60;1.00
5304;DHT22;2674;49.722;10.892;2023-07-08T08:01:00;27.70;1.00
5304;DHT22;2674;49.722;10.892;2023-07-08T08:03:26;27.90;1.00
5304;DHT22;2674;49.722;10.892;2023-07-08T08:05:52;28.00;1.00
5304;DHT22;2674;49.722;10.892;2023-07-08T08:08:18;28.00;1.00
5304;DHT22;2674;49.722;10.892;2023-07-08T08:10:44;28.10;1.00
5304;DHT22;2674;49.722;10.892;2023-07-08T08:13:10;28.30;1.00
5304;DHT22;2674;49.722;10.892;2023-07-08T08:15:37;28.30;1.00
5304;DHT22;2674;49.722;10.892;2023-07-08T08:18:03;28.50;1.00
5304;DHT22;2674;49.722;10.892;2023-07-08T08:20:29;28.60;1.00
5304;DHT22;2674;49.722;10.892;2023-07-08T08:22:55;28.70;1.00
5304;DHT22;2674;49.722;10.892;2023-07-08T08:25:24;28.90;1.00
5304;DHT22;2674;49.722;10.892;2023-07-08T08:27:51;28.90;1.00
5304;DHT22;2674;49.722;10.892;2023-07-08T08:30:18;29.00;1.00
5304;DHT22;2674;49.722;10.892;2023-07-08T08:32:44;29.00;1.00
5304;DHT22;2674;49.722;10.892;2023-07-08T08:35:10;29.10;1.00
5304;DHT22;2674;49.722;10.892;2023-07-08T08:37:35;29.10;1.00
5304;DHT22;2674;49.722;10.892;2023-07-08T08:40:01;29.20;1.00
5304;DHT22;2674;49.722;10.892;2023-07-08T08:42:34;29.20;1.00
5304;DHT22;2674;49.722;10.892;2023-07-08T08:45:02;29.40;1.00
5304;DHT22;2674;49.722;10.892;2023-07-08T08:47:44;29.50;1.00
5304;DHT22;2674;49.722;10.892;2023-07-08T08:50:30;29.70;1.00
5304;DHT22;2674;49.722;10.892;2023-07-08T08:53:00;29.90;1.00
5304;DHT22;2674;49.722;10.892;2023-07-08T08:55:27;29.90;1.00
5304;DHT22;2674;49.722;10.892;2023-07-08T09:00:30;30.30;1.00
5304;DHT22;2674;49.722;10.892;2023-07-08T09:03:40;30.40;1.00
5304;DHT22;2674;49.722;10.892;2023-07-08T09:06:12;30.40;1.00
5304;DHT22;2674;49.722;10.892;2023-07-08T09:08:39;30.50;1.00
5304;DHT22;2674;49.722;10.892;2023-07-08T09:14:02;30.60;1.00
5304;DHT22;2674;49.722;10.892;2023-07-08T09:19:14;30.60;1.00
5304;DHT22;2674;49.722;10.892;2023-07-08T09:27:13;30.60;1.00
5304;DHT22;2674;49.722;10.892;2023-07-08T09:29:38;30.60;1.00
5304;DHT22;2674;49.722;10.892;2023-07-08T09:32:31;30.60;1.00
5304;DHT22;2674;49.722;10.892;2023-07-08T09:35:05;30.50;1.00
5304;DHT22;2674;49.722;10.892;2023-07-08T09:37:37;30.50;1.00
5304;DHT22;2674;49.722;10.892;2023-07-08T09:43:01;30.60;1.00
5304;DHT22;2674;49.722;10.892;2023-07-08T09:45:29;30.60;1.00
5304;DHT22;2674;49.722;10.892;2023-07-08T09:48:18;30.50;1.00
5304;DHT22;2674;49.722;10.892;2023-07-08T09:50:48;30.50;1.00
5304;DHT22;2674;49.722;10.892;2023-07-08T09:53:14;30.70;1.00
5304;DHT22;2674;49.722;10.892;2023-07-08T09:55:40;30.80;1.00
5304;DHT22;2674;49.722;10.892;2023-07-08T09:58:13;31.00;1.00
5304;DHT22;2674;49.722;10.892;2023-07-08T10:00:42;31.00;1.00
5304;DHT22;2674;49.722;10.892;2023-07-08T10:03:28;31.10;1.00
5304;DHT22;2674;49.722;10.892;2023-07-08T10:05:58;31.30;1.00
5304;DHT22;2674;49.722;10.892;2023-07-08T10:08:41;31.40;1.00
5304;DHT22;2674;49.722;10.892;2023-07-08T10:11:19;31.40;1.00
5304;DHT22;2674;49.722;10.892;2023-07-08T10:13:50;31.40;1.00
5304;DHT22;2674;49.722;10.892;2023-07-08T10:16:24;31.50;1.00
5304;DHT22;2674;49.722;10.892;2023-07-08T10:18:51;31.60;1.00
5304;DHT22;2674;49.722;10.892;2023-07-08T10:26:59;31.70;1.00
5304;DHT22;2674;49.722;10.892;2023-07-08T10:32:19;31.60;1.00
5304;DHT22;2674;49.722;10.892;2023-07-08T10:43:38;31.30;1.00
5304;DHT22;2674;49.722;10.892;2023-07-08T10:53:58;31.30;1.00
5304;DHT22;2674;49.722;10.892;2023-07-08T10:59:25;31.40;1.00
5304;DHT22;2674;49.722;10.892;2023-07-08T11:02:15;31.60;1.00
5304;DHT22;2674;49.722;10.892;2023-07-08T11:10:29;32.00;1.00
5304;DHT22;2674;49.722;10.892;2023-07-08T11:13:16;32.00;1.00
5304;DHT22;2674;49.722;10.892;2023-07-08T11:15:51;32.20;1.00
5304;DHT22;2674;49.722;10.892;2023-07-08T11:18:49;32.50;1.00
5304;DHT22;2674;49.722;10.892;2023-07-08T11:21:26;32.60;1.00
5304;DHT22;2674;49.722;10.892;2023-07-08T11:28:59;32.10;1.00
5304;DHT22;2674;49.722;10.892;2023-07-08T11:31:30;32.30;1.00
5304;DHT22;2674;49.722;10.892;2023-07-08T11:33:58;32.10;1.00
5304;DHT22;2674;49.722;10.892;2023-07-08T11:36:25;31.90;1.00
5304;DHT22;2674;49.722;10.892;2023-07-08T11:38:56;31.90;1.00
5304;DHT22;2674;49.722;10.892;2023-07-08T11:41:27;32.20;1.00
5304;DHT22;2674;49.722;10.892;2023-07-08T11:43:59;32.60;1.00
5304;DHT22;2674;49.722;10.892;2023-07-08T11:46:27;32.90;1.00
5304;DHT22;2674;49.722;10.892;2023-07-08T11:49:02;33.10;1.00
5304;DHT22;2674;49.722;10.892;2023-07-08T11:51:34;33.30;1.00
5304;DHT22;2674;49.722;10.892;2023-07-08T12:01:54;33.90;1.00
5304;DHT22;2674;49.722;10.892;2023-07-08T12:07:14;34.20;1.00
5304;DHT22;2674;49.722;10.892;2023-07-08T12:09:47;34.10;1.00
5304;DHT22;2674;49.722;10.892;2023-07-08T12:12:24;33.70;1.00
5304;DHT22;2674;49.722;10.892;2023-07-08T12:14:53;33.40;1.00
5304;DHT22;2674;49.722;10.892;2023-07-08T12:17:19;33.50;1.00
5304;DHT22;2674;49.722;10.892;2023-07-08T12:19:49;33.50;1.00
5304;DHT22;2674;49.722;10.892;2023-07-08T12:22:16;33.80;1.00
5304;DHT22;2674;49.722;10.892;2023-07-08T12:24:44;34.00;1.00
5304;DHT22;2674;49.722;10.892;2023-07-08T12:27:10;34.10;1.00
5304;DHT22;2674;49.722;10.892;2023-07-08T12:29:37;34.00;1.00
5304;DHT22;2674;49.722;10.892;2023-07-08T12:32:04;34.00;1.00
5304;DHT22;2674;49.722;10.892;2023-07-08T12:34:30;33.60;1.00
5304;DHT22;2674;49.722;10.892;2023-07-08T12:36:57;33.70;1.00
5304;DHT22;2674;49.722;10.892;2023-07-08T12:39:23;33.40;1.00
5304;DHT22;2674;49.722;10.892;2023-07-08T12:41:49;33.50;1.00
5304;DHT22;2674;49.722;10.892;2023-07-08T12:44:22;33.40;1.00
5304;DHT22;2674;49.722;10.892;2023-07-08T12:46:49;33.30;1.00
5304;DHT22;2674;49.722;10.892;2023-07-08T12:49:17;33.20;1.00
5304;DHT22;2674;49.722;10.892;2023-07-08T12:51:46;33.10;1.00
5304;DHT22;2674;49.722;10.892;2023-07-08T12:54:13;33.20;1.00
5304;DHT22;2674;49.722;10.892;2023-07-08T12:56:42;33.30;1.00
5304;DHT22;2674;49.722;10.892;2023-07-08T12:59:14;33.50;1.00
5304;DHT22;2674;49.722;10.892;2023-07-08T13:01:43;33.30;1.00
5304;DHT22;2674;49.722;10.892;2023-07-08T13:04:12;33.30;1.00
5304;DHT22;2674;49.722;10.892;2023-07-08T13:06:39;33.40;1.00
5304;DHT22;2674;49.722;10.892;2023-07-08T13:11:33;33.50;1.00
5304;DHT22;2674;49.722;10.892;2023-07-08T13:14:03;33.40;1.00
5304;DHT22;2674;49.722;10.892;2023-07-08T13:16:32;33.30;1.00
5304;DHT22;2674;49.722;10.892;2023-07-08T13:18:59;33.20;1.00
5304;DHT22;2674;49.722;10.892;2023-07-08T13:21:26;33.50;1.00
5304;DHT22;2674;49.722;10.892;2023-07-08T13:23:53;33.80;1.00
5304;DHT22;2674;49.722;10.892;2023-07-08T13:26:27;34.00;1.00
5304;DHT22;2674;49.722;10.892;2023-07-08T13:29:09;34.20;1.00
5304;DHT22;2674;49.722;10.892;2023-07-08T13:31:38;34.10;1.00
5304;DHT22;2674;49.722;10.892;2023-07-08T13:34:10;33.90;1.00
5304;DHT22;2674;49.722;10.892;2023-07-08T13:36:39;34.10;1.00
5304;DHT22;2674;49.722;10.892;2023-07-08T13:39:14;34.40;1.00
5304;DHT22;2674;49.722;10.892;2023-07-08T13:41:43;34.60;1.00
5304;DHT22;2674;49.722;10.892;2023-07-08T13:44:10;34.60;1.00
5304;DHT22;2674;49.722;10.892;2023-07-08T13:49:24;34.90;1.00
5304;DHT22;2674;49.722;10.892;2023-07-08T13:51:51;35.10;1.00
5304;DHT22;2674;49.722;10.892;2023-07-08T13:54:34;35.30;1.00
5304;DHT22;2674;49.722;10.892;2023-07-08T13:57:07;35.30;1.00
5304;DHT22;2674;49.722;10.892;2023-07-08T13:59:34;35.20;1.00
5304;DHT22;2674;49.722;10.892;2023-07-08T14:01:59;34.60;1.00
5304;DHT22;2674;49.722;10.892;2023-07-08T14:04:30;34.30;1.00
5304;DHT22;2674;49.722;10.892;2023-07-08T14:06:56;34.30;1.00
5304;DHT22;2674;49.722;10.892;2023-07-08T14:09:22;34.60;1.00
5304;DHT22;2674;49.722;10.892;2023-07-08T14:11:50;34.80;1.00
5304;DHT22;2674;49.722;10.892;2023-07-08T14:14:17;35.10;1.00
5304;DHT22;2674;49.722;10.892;2023-07-08T14:16:51;35.30;1.00
5304;DHT22;2674;49.722;10.892;2023-07-08T14:19:32;35.40;1.00
5304;DHT22;2674;49.722;10.892;2023-07-08T14:24:41;35.20;1.00
5304;DHT22;2674;49.722;10.892;2023-07-08T14:27:09;35.10;1.00
5304;DHT22;2674;49.722;10.892;2023-07-08T14:29:38;35.00;1.00
5304;DHT22;2674;49.722;10.892;2023-07-08T14:32:04;35.00;1.00
5304;DHT22;2674;49.722;10.892;2023-07-08T14:34:30;35.10;1.00
5304;DHT22;2674;49.722;10.892;2023-07-08T14:36:58;35.10;1.00
5304;DHT22;2674;49.722;10.892;2023-07-08T14:39:24;34.90;1.00
5304;DHT22;2674;49.722;10.892;2023-07-08T14:41:50;35.10;1.00
5304;DHT22;2674;49.722;10.892;2023-07-08T14:44:30;35.30;1.00
5304;DHT22;2674;49.722;10.892;2023-07-08T14:46:57;35.30;1.00
5304;DHT22;2674;49.722;10.892;2023-07-08T14:49:24;35.20;1.00
5304;DHT22;2674;49.722;10.892;2023-07-08T14:51:50;35.10;1.00
5304;DHT22;2674;49.722;10.892;2023-07-08T14:54:18;35.20;1.00
5304;DHT22;2674;49.722;10.892;2023-07-08T14:56:44;35.20;1.00
5304;DHT22;2674;49.722;10.892;2023-07-08T14:59:21;35.30;1.00
5304;DHT22;2674;49.722;10.892;2023-07-08T15:01:48;35.40;1.00
5304;DHT22;2674;49.722;10.892;2023-07-08T15:04:16;35.20;1.00
5304;DHT22;2674;49.722;10.892;2023-07-08T15:06:43;34.90;1.00
5304;DHT22;2674;49.722;10.892;2023-07-08T15:09:10;34.90;1.00
5304;DHT22;2674;49.722;10.892;2023-07-08T15:11:37;35.10;1.00
5304;DHT22;2674;49.722;10.892;2023-07-08T15:14:05;35.20;1.00
5304;DHT22;2674;49.722;10.892;2023-07-08T15:16:32;35.00;1.00
5304;DHT22;2674;49.722;10.892;2023-07-08T15:18:57;34.90;1.00
5304;DHT22;2674;49.722;10.892;2023-07-08T15:21:23;34.60;1.00
5304;DHT22;2674;49.722;10.892;2023-07-08T15:23:52;34.90;1.00
5304;DHT22;2674;49.722;10.892;2023-07-08T15:26:17;35.20;1.00
5304;DHT22;2674;49.722;10.892;2023-07-08T15:28:48;35.20;1.00
5304;DHT22;2674;49.722;10.892;2023-07-08T15:31:16;35.30;1.00
5304;DHT22;2674;49.722;10.892;2023-07-08T15:33:44;35.40;1.00
5304;DHT22;2674;49.722;10.892;2023-07-08T15:36:13;35.40;1.00
5304;DHT22;2674;49.722;10.892;2023-07-08T15:38:40;35.60;1.00
5304;DHT22;2674;49.722;10.892;2023-07-08T15:41:18;35.70;1.00
5304;DHT22;2674;49.722;10.892;2023-07-08T15:43:45;35.80;1.00
5304;DHT22;2674;49.722;10.892;2023-07-08T15:46:11;36.00;1.00
5304;DHT22;2674;49.722;10.892;2023-07-08T15:48:37;35.90;1.00
5304;DHT22;2674;49.722;10.892;2023-07-08T15:51:03;35.90;1.00
5304;DHT22;2674;49.722;10.892;2023-07-08T15:53:28;35.90;1.00
5304;DHT22;2674;49.722;10.892;2023-07-08T15:55:54;35.80;1.00
5304;DHT22;2674;49.722;10.892;2023-07-08T15:58:32;35.80;1.00
5304;DHT22;2674;49.722;10.892;2023-07-08T16:01:00;35.90;1.00
5304;DHT22;2674;49.722;10.892;2023-07-08T16:03:29;36.00;1.00
5304;DHT22;2674;49.722;10.892;2023-07-08T16:05:57;35.90;1.00
5304;DHT22;2674;49.722;10.892;2023-07-08T16:08:23;35.80;1.00
5304;DHT22;2674;49.722;10.892;2023-07-08T16:10:59;36.00;1.00
5304;DHT22;2674;49.722;10.892;2023-07-08T16:13:28;36.00;1.00
5304;DHT22;2674;49.722;10.892;2023-07-08T16:15:55;36.10;1.00
5304;DHT22;2674;49.722;10.892;2023-07-08T16:18:21;36.20;1.00
5304;DHT22;2674;49.722;10.892;2023-07-08T16:20:48;36.10;1.00
5304;DHT22;2674;49.722;10.892;2023-07-08T16:23:13;36.00;1.00
5304;DHT22;2674;49.722;10.892;2023-07-08T16:25:46;35.80;1.00
5304;DHT22;2674;49.722;10.892;2023-07-08T16:28:34;35.70;1.00
5304;DHT22;2674;49.722;10.892;2023-07-08T16:31:24;35.50;1.00
5304;DHT22;2674;49.722;10.892;2023-07-08T16:33:52;35.60;1.00
5304;DHT22;2674;49.722;10.892;2023-07-08T16:36:29;35.50;1.00
5304;DHT22;2674;49.722;10.892;2023-07-08T16:38:55;35.50;1.00
5304;DHT22;2674;49.722;10.892;2023-07-08T16:41:25;35.50;1.00
5304;DHT22;2674;49.722;10.892;2023-07-08T16:43:51;35.50;1.00
5304;DHT22;2674;49.722;10.892;2023-07-08T16:46:22;35.20;1.00
5304;DHT22;2674;49.722;10.892;2023-07-08T16:48:47;35.20;1.00
5304;DHT22;2674;49.722;10.892;2023-07-08T16:51:22;35.30;1.00
5304;DHT22;2674;49.722;10.892;2023-07-08T16:53:50;35.40;1.00
5304;DHT22;2674;49.722;10.892;2023-07-08T16:56:20;35.40;1.00
5304;DHT22;2674;49.722;10.892;2023-07-08T16:58:46;35.20;1.00
5304;DHT22;2674;49.722;10.892;2023-07-08T17:01:21;35.20;1.00
5304;DHT22;2674;49.722;10.892;2023-07-08T17:03:48;35.10;1.00
5304;DHT22;2674;49.722;10.892;2023-07-08T17:06:14;35.20;1.00
5304;DHT22;2674;49.722;10.892;2023-07-08T17:08:40;35.20;1.00
5304;DHT22;2674;49.722;10.892;2023-07-08T17:11:06;35.40;1.00
5304;DHT22;2674;49.722;10.892;2023-07-08T17:13:31;35.40;1.00
5304;DHT22;2674;49.722;10.892;2023-07-08T17:15:57;35.50;1.00
5304;DHT22;2674;49.722;10.892;2023-07-08T17:18:24;35.40;1.00
5304;DHT22;2674;49.722;10.892;2023-07-08T17:20:51;35.50;1.00
5304;DHT22;2674;49.722;10.892;2023-07-08T17:23:19;35.40;1.00
5304;DHT22;2674;49.722;10.892;2023-07-08T17:25:45;35.30;1.00
5304;DHT22;2674;49.722;10.892;2023-07-08T17:28:11;35.20;1.00
5304;DHT22;2674;49.722;10.892;2023-07-08T17:30:43;35.20;1.00